L M Clayton Airport
KOLF : now visible

Airfield :











YOU CAN JOIN US ON...

 
LOGIN :

Register | Disclaimer

   EN    FR    IT 

 









Legend :    VFR   Marginal VFR   IFR   Intensive IFR   Very Intensive IFR
Visi :
Ceiling :
>= 8 km
>= 3000ft
5 to 8 km
1000 to 3000 ft
1500m to 5 km
500 to 1000 ft
800 to 1500m
200 to 500 ft
< 800m
< 200 ft
Symbols :   Thunderstorms  Fog  Heavy snow  Heavy precipitations  Wind > 20 kt






- Airport Elevation : 1986 ft


KOLF - L M Clayton

CURRENT METAR :
  • 312053Z AUTO VRB06G15KT 10SM CLR 28/16 A2968 RMK AO2 SLP042 T02830161 58015

EXPIRED METARs :
  • 311953Z AUTO 17008KT 10SM CLR 28/15 A2971 RMK AO2 SLP052 T02830150
  • 311853Z AUTO 20008KT 8SM CLR 27/15 A2975 RMK AO2 SLP063 T02720150

TAF KOLF
Valid from the 31 at 18:00 until the 01 at 18:00 UTC


311720Z 3118/0118 13015G22KT P6SM SCT150
FM312300 20013G21KT P6SM VCTS SCT100CB
TEMPO 0100/0101 6SM -TSRA BR BKN120CB
FM010200 VRB06KT P6SM SCT100
KZLC FIR / North America



MET'MAP, your aeronautical weather chart ! - Copyright ORBIFLY December 2007 - Disclaimer

ORBIFLY MET'MAP TEAM :

Programming & Development : Alexandra Zaïnal
Concept & original design : Baudouin d'Aumeries
Assistance for programming : Marc-Olivier Méhu
Technical & hardware support : Manuel Goepfert

Contact : metmap@orbifly.com




SOURCES & CREDITS :

   NOAA       Earth
Advisory